NEW EXCHEQUER-LK MCCLURE (EXC)

Elevation: 879' · MERCED R basin · Operator: Merced Irrigation District

Provisional data, subject to change.
Query executed Saturday at 23:56:29

Select a sensor type for a plot of data.
Note: Reservoir Flows are daily averages.

Earlier

Date RES ELE    STORAGE    RES CHG    TOC STO    ABV TOC    OUTFLOW    INFLOW    PPT INC    TEMP MN    TEMP MX    TEMP AV    EVP PAN   
 FEET   AF   AF   AF   AF   CFS   CFS   INCHES   DEG F   DEG F   DEG F   INCHES  
11/11/2016 741.87 387354 342 674600 -287246 74 367 0.00 57 83 67 0.17
11/12/2016 742.05 387970 581 674600 -286630 79 389 0.00 56 77 65 0.14
11/13/2016 742.20 388484 549 674600 -286116 77 336 0.00 54 78 62 0.10
11/14/2016 742.35 388999 274 674600 -285601 75 334 0.00 54 75 61 0.10
11/15/2016 742.48 389446 447 674600 -285154 65 287 0.02 52 72 60 0.09
11/16/2016 742.60 389858 206 674600 -284742 64 271 0.00 48 60 53 0.11
11/17/2016 742.69 390168 103 674600 -284432 71 227 0.00 42 58 49 0.07
11/18/2016 742.71 390235 67 674600 -284365 171 205 0.00 44 71 57 11690.00
11/19/2016 742.62 389927 -274 674600 -284673 355 200 0.01 57 70 63 0.18
11/20/2016 742.63 389961 34 674600 -284639 280 297 0.61 54 58 56 1.42
11/21/2016 742.14 388279 -1408 674600 -286321 995 147 0.01 47 57 52 0.00
11/22/2016 742.80 387115 -1130 674600 -287485 803 216 0.23 46 61 52 0.00
11/23/2016 741.71 386807 -479 674600 -287793 427 272 0.00 46 60 52 0.00
11/24/2016 741.74 386910 -102 674600 -287690 206 258 0.00 43 60 50 0.00
11/25/2016 741.69 386738 -35 674600 -287862 260 173 0.00 42 58 49 0.00
11/26/2016 741.79 387081 35 674600 -287519 261 434 1.13 45 59 50 0.00
11/27/2016 741.84 387252 0 674600 -287348 277 363 0.06 46 55 49 0.13
11/28/2016 741.83 387218 -205 674600 -287382 334 317 0.01 44 49 47 737.20
11/29/2016 741.75 386944 -206 674600 -287656 401 263 0.00 43 55 48 0.02
11/30/2016 741.79 387081 68 674600 -287519 231 301 0.00 43 58 49 0.05
12/01/2016 741.81 387149 0 674600 -287451 242 276 0.00 41 47 44 0.03
12/02/2016 741.84 387252 0 674600 -287348 216 268 0.00 39 49 43 0.02
12/03/2016 741.77 387012 -274 674600 -287588 364 243 0.00 40 56 47 0.04
12/04/2016 741.73 386876 -171 674600 -287724 313 245 0.00 42 60 49 0.06
12/05/2016 741.70 386773 -103 674600 -287827 323 271 0.00 42 54 46 0.04
12/06/2016 741.75 386944 68 674600 -287656 172 258 0.00 40 53 46 0.04
12/07/2016 741.84 387252 68 674600 -287348 168 324 0.22 38 50 45 0.00
12/08/2016 741.88 387389 -137 674600 -287211 261 330 0.13 47 57 53 0.04
12/09/2016 742.05 387970 205 674600 -286630 262 555 0.08 53 62 56 0.02
12/10/2016 -- -- -- -- -- -- -- -- -- -- -- --

Later | Latest

Warning! This data is preliminary and subject to revision.

Show EXC Map | Plot EXC Data | 1 Month EXC Data | Real-Time EXC Data | EXC Info